sensor_id;sensor_type;location;lat;lon;timestamp;P1;durP1;ratioP1;P2;durP2;ratioP2
25409;SDS011;13339;50.840;4.346;2024-01-11T00:01:45;37.73;;;16.20;;
25409;SDS011;13339;50.840;4.346;2024-01-11T00:04:12;42.53;;;16.30;;
25409;SDS011;13339;50.840;4.346;2024-01-11T00:06:44;37.80;;;17.10;;
25409;SDS011;13339;50.840;4.346;2024-01-11T00:09:10;38.07;;;17.23;;
25409;SDS011;13339;50.840;4.346;2024-01-11T00:11:35;41.17;;;17.53;;
25409;SDS011;13339;50.840;4.346;2024-01-11T00:14:01;41.03;;;17.90;;
25409;SDS011;13339;50.840;4.346;2024-01-11T00:16:27;39.57;;;17.63;;
25409;SDS011;13339;50.840;4.346;2024-01-11T00:18:52;39.43;;;18.13;;
25409;SDS011;13339;50.840;4.346;2024-01-11T00:21:18;38.87;;;17.17;;
25409;SDS011;13339;50.840;4.346;2024-01-11T00:23:43;37.50;;;17.50;;
25409;SDS011;13339;50.840;4.346;2024-01-11T00:26:12;34.80;;;17.10;;
25409;SDS011;13339;50.840;4.346;2024-01-11T00:28:38;40.17;;;17.23;;
25409;SDS011;13339;50.840;4.346;2024-01-11T00:31:03;39.40;;;18.33;;
25409;SDS011;13339;50.840;4.346;2024-01-11T00:33:29;35.63;;;17.90;;
25409;SDS011;13339;50.840;4.346;2024-01-11T00:35:55;40.33;;;18.40;;
25409;SDS011;13339;50.840;4.346;2024-01-11T00:38:21;37.87;;;16.93;;
25409;SDS011;13339;50.840;4.346;2024-01-11T00:40:46;38.97;;;18.10;;
25409;SDS011;13339;50.840;4.346;2024-01-11T00:43:12;40.77;;;18.80;;
25409;SDS011;13339;50.840;4.346;2024-01-11T00:45:38;40.80;;;17.07;;
25409;SDS011;13339;50.840;4.346;2024-01-11T00:48:04;33.90;;;16.37;;
25409;SDS011;13339;50.840;4.346;2024-01-11T00:50:29;36.83;;;17.43;;
25409;SDS011;13339;50.840;4.346;2024-01-11T00:52:55;40.17;;;16.87;;
25409;SDS011;13339;50.840;4.346;2024-01-11T00:55:21;41.17;;;18.93;;
25409;SDS011;13339;50.840;4.346;2024-01-11T00:57:47;35.97;;;17.33;;
25409;SDS011;13339;50.840;4.346;2024-01-11T01:00:13;39.20;;;17.67;;
25409;SDS011;13339;50.840;4.346;2024-01-11T01:02:39;41.33;;;17.33;;
25409;SDS011;13339;50.840;4.346;2024-01-11T01:05:05;36.03;;;16.80;;
25409;SDS011;13339;50.840;4.346;2024-01-11T01:07:31;40.90;;;17.77;;
25409;SDS011;13339;50.840;4.346;2024-01-11T01:09:57;37.30;;;16.93;;
25409;SDS011;13339;50.840;4.346;2024-01-11T01:12:23;40.97;;;17.70;;
25409;SDS011;13339;50.840;4.346;2024-01-11T01:14:50;34.63;;;16.67;;
25409;SDS011;13339;50.840;4.346;2024-01-11T01:17:16;37.70;;;17.33;;
25409;SDS011;13339;50.840;4.346;2024-01-11T01:19:42;40.60;;;18.70;;
25409;SDS011;13339;50.840;4.346;2024-01-11T01:22:08;42.13;;;18.10;;
25409;SDS011;13339;50.840;4.346;2024-01-11T01:24:34;39.60;;;17.73;;
25409;SDS011;13339;50.840;4.346;2024-01-11T01:26:59;41.40;;;18.37;;
25409;SDS011;13339;50.840;4.346;2024-01-11T01:29:25;38.07;;;17.77;;
25409;SDS011;13339;50.840;4.346;2024-01-11T01:31:51;38.10;;;17.40;;
25409;SDS011;13339;50.840;4.346;2024-01-11T01:34:17;47.03;;;17.20;;
25409;SDS011;13339;50.840;4.346;2024-01-11T01:36:43;43.33;;;18.57;;
25409;SDS011;13339;50.840;4.346;2024-01-11T01:39:09;36.67;;;17.17;;
25409;SDS011;13339;50.840;4.346;2024-01-11T01:41:34;39.40;;;18.63;;
25409;SDS011;13339;50.840;4.346;2024-01-11T01:44:00;41.83;;;17.80;;
25409;SDS011;13339;50.840;4.346;2024-01-11T01:46:26;39.13;;;17.83;;
25409;SDS011;13339;50.840;4.346;2024-01-11T01:48:53;48.07;;;19.47;;
25409;SDS011;13339;50.840;4.346;2024-01-11T01:51:22;42.87;;;17.57;;
25409;SDS011;13339;50.840;4.346;2024-01-11T01:53:48;39.67;;;17.37;;
25409;SDS011;13339;50.840;4.346;2024-01-11T01:56:17;36.27;;;18.20;;
25409;SDS011;13339;50.840;4.346;2024-01-11T01:58:44;35.40;;;16.57;;
25409;SDS011;13339;50.840;4.346;2024-01-11T02:01:10;41.43;;;18.33;;
25409;SDS011;13339;50.840;4.346;2024-01-11T02:03:36;39.17;;;17.87;;
25409;SDS011;13339;50.840;4.346;2024-01-11T02:06:03;37.13;;;17.97;;
25409;SDS011;13339;50.840;4.346;2024-01-11T02:08:31;38.00;;;18.17;;
25409;SDS011;13339;50.840;4.346;2024-01-11T02:10:58;37.97;;;17.77;;
25409;SDS011;13339;50.840;4.346;2024-01-11T02:13:25;39.70;;;17.40;;
25409;SDS011;13339;50.840;4.346;2024-01-11T02:15:50;36.83;;;18.40;;
25409;SDS011;13339;50.840;4.346;2024-01-11T02:18:17;41.27;;;16.47;;
25409;SDS011;13339;50.840;4.346;2024-01-11T02:20:42;35.67;;;17.07;;
25409;SDS011;13339;50.840;4.346;2024-01-11T02:23:17;39.97;;;18.20;;
25409;SDS011;13339;50.840;4.346;2024-01-11T02:25:46;39.40;;;17.33;;
25409;SDS011;13339;50.840;4.346;2024-01-11T02:28:12;38.37;;;17.33;;
25409;SDS011;13339;50.840;4.346;2024-01-11T02:30:37;35.70;;;17.43;;
25409;SDS011;13339;50.840;4.346;2024-01-11T02:33:03;32.97;;;16.60;;
25409;SDS011;13339;50.840;4.346;2024-01-11T02:35:29;42.97;;;18.03;;
25409;SDS011;13339;50.840;4.346;2024-01-11T02:37:56;39.83;;;17.77;;
25409;SDS011;13339;50.840;4.346;2024-01-11T02:40:23;42.00;;;19.07;;
25409;SDS011;13339;50.840;4.346;2024-01-11T02:42:50;40.17;;;17.53;;
25409;SDS011;13339;50.840;4.346;2024-01-11T02:45:16;37.43;;;17.07;;
25409;SDS011;13339;50.840;4.346;2024-01-11T02:47:42;42.67;;;18.47;;
25409;SDS011;13339;50.840;4.346;2024-01-11T02:50:08;41.07;;;17.33;;
25409;SDS011;13339;50.840;4.346;2024-01-11T02:52:34;40.80;;;18.37;;
25409;SDS011;13339;50.840;4.346;2024-01-11T02:54:59;47.33;;;18.27;;
25409;SDS011;13339;50.840;4.346;2024-01-11T02:57:25;36.20;;;17.07;;
25409;SDS011;13339;50.840;4.346;2024-01-11T02:59:51;48.90;;;17.87;;
25409;SDS011;13339;50.840;4.346;2024-01-11T03:02:17;35.90;;;17.33;;
25409;SDS011;13339;50.840;4.346;2024-01-11T03:04:42;38.27;;;17.63;;
25409;SDS011;13339;50.840;4.346;2024-01-11T03:07:08;39.00;;;17.60;;
25409;SDS011;13339;50.840;4.346;2024-01-11T03:09:34;37.17;;;17.33;;
25409;SDS011;13339;50.840;4.346;2024-01-11T03:11:59;38.00;;;16.70;;
25409;SDS011;13339;50.840;4.346;2024-01-11T03:14:25;41.37;;;17.57;;
25409;SDS011;13339;50.840;4.346;2024-01-11T03:16:51;35.63;;;17.30;;
25409;SDS011;13339;50.840;4.346;2024-01-11T03:19:17;45.90;;;18.40;;
25409;SDS011;13339;50.840;4.346;2024-01-11T03:21:46;39.00;;;17.93;;
25409;SDS011;13339;50.840;4.346;2024-01-11T03:24:12;41.87;;;18.60;;
25409;SDS011;13339;50.840;4.346;2024-01-11T03:26:38;42.50;;;19.20;;
25409;SDS011;13339;50.840;4.346;2024-01-11T03:29:04;38.70;;;18.47;;
25409;SDS011;13339;50.840;4.346;2024-01-11T03:31:30;37.30;;;18.00;;
25409;SDS011;13339;50.840;4.346;2024-01-11T03:33:56;40.57;;;17.73;;
25409;SDS011;13339;50.840;4.346;2024-01-11T03:36:25;39.93;;;18.60;;
25409;SDS011;13339;50.840;4.346;2024-01-11T03:38:50;39.27;;;18.60;;
25409;SDS011;13339;50.840;4.346;2024-01-11T03:41:16;38.10;;;18.63;;
25409;SDS011;13339;50.840;4.346;2024-01-11T03:43:42;39.03;;;16.73;;
25409;SDS011;13339;50.840;4.346;2024-01-11T03:46:09;47.77;;;19.33;;
25409;SDS011;13339;50.840;4.346;2024-01-11T03:48:34;39.17;;;18.30;;
25409;SDS011;13339;50.840;4.346;2024-01-11T03:51:03;39.83;;;18.80;;
25409;SDS011;13339;50.840;4.346;2024-01-11T03:53:28;38.60;;;19.10;;
25409;SDS011;13339;50.840;4.346;2024-01-11T03:55:54;44.53;;;17.97;;
25409;SDS011;13339;50.840;4.346;2024-01-11T03:58:20;40.07;;;17.97;;
25409;SDS011;13339;50.840;4.346;2024-01-11T04:00:45;39.53;;;18.53;;
25409;SDS011;13339;50.840;4.346;2024-01-11T04:03:11;37.77;;;18.03;;
25409;SDS011;13339;50.840;4.346;2024-01-11T04:05:36;35.23;;;16.60;;
25409;SDS011;13339;50.840;4.346;2024-01-11T04:08:05;36.10;;;17.90;;
25409;SDS011;13339;50.840;4.346;2024-01-11T04:10:32;38.40;;;18.00;;
25409;SDS011;13339;50.840;4.346;2024-01-11T04:12:57;42.20;;;18.27;;
25409;SDS011;13339;50.840;4.346;2024-01-11T04:15:23;39.37;;;18.37;;
25409;SDS011;13339;50.840;4.346;2024-01-11T04:17:49;50.23;;;17.37;;
25409;SDS011;13339;50.840;4.346;2024-01-11T04:20:14;38.70;;;17.57;;
25409;SDS011;13339;50.840;4.346;2024-01-11T04:22:40;40.87;;;17.97;;
25409;SDS011;13339;50.840;4.346;2024-01-11T04:25:06;44.50;;;19.60;;
25409;SDS011;13339;50.840;4.346;2024-01-11T04:27:32;42.27;;;18.87;;
25409;SDS011;13339;50.840;4.346;2024-01-11T04:29:57;38.30;;;17.37;;
25409;SDS011;13339;50.840;4.346;2024-01-11T04:32:23;47.57;;;20.20;;
25409;SDS011;13339;50.840;4.346;2024-01-11T04:34:49;40.93;;;18.13;;
25409;SDS011;13339;50.840;4.346;2024-01-11T04:37:14;38.83;;;17.73;;
25409;SDS011;13339;50.840;4.346;2024-01-11T04:39:40;36.67;;;17.20;;
25409;SDS011;13339;50.840;4.346;2024-01-11T04:42:06;39.37;;;18.13;;
25409;SDS011;13339;50.840;4.346;2024-01-11T04:44:31;38.03;;;17.73;;
25409;SDS011;13339;50.840;4.346;2024-01-11T04:46:57;42.07;;;18.50;;
25409;SDS011;13339;50.840;4.346;2024-01-11T04:49:22;42.40;;;17.80;;
25409;SDS011;13339;50.840;4.346;2024-01-11T04:51:48;43.73;;;17.23;;
25409;SDS011;13339;50.840;4.346;2024-01-11T04:54:14;43.60;;;18.50;;
25409;SDS011;13339;50.840;4.346;2024-01-11T04:56:39;38.17;;;18.10;;
25409;SDS011;13339;50.840;4.346;2024-01-11T04:59:05;41.47;;;19.40;;
25409;SDS011;13339;50.840;4.346;2024-01-11T05:01:31;38.40;;;19.37;;
25409;SDS011;13339;50.840;4.346;2024-01-11T05:03:56;40.10;;;18.33;;
25409;SDS011;13339;50.840;4.346;2024-01-11T05:06:22;43.57;;;18.03;;
25409;SDS011;13339;50.840;4.346;2024-01-11T05:08:49;36.60;;;17.80;;
25409;SDS011;13339;50.840;4.346;2024-01-11T05:11:19;43.80;;;18.23;;
25409;SDS011;13339;50.840;4.346;2024-01-11T05:13:46;37.13;;;17.80;;
25409;SDS011;13339;50.840;4.346;2024-01-11T05:16:21;43.03;;;18.80;;
25409;SDS011;13339;50.840;4.346;2024-01-11T05:18:47;44.10;;;19.77;;
25409;SDS011;13339;50.840;4.346;2024-01-11T05:21:13;42.87;;;19.27;;
25409;SDS011;13339;50.840;4.346;2024-01-11T05:23:42;60.33;;;21.47;;
25409;SDS011;13339;50.840;4.346;2024-01-11T05:26:08;42.00;;;18.87;;
25409;SDS011;13339;50.840;4.346;2024-01-11T05:28:35;43.93;;;18.60;;
25409;SDS011;13339;50.840;4.346;2024-01-11T05:31:00;44.03;;;19.47;;
25409;SDS011;13339;50.840;4.346;2024-01-11T05:33:26;53.43;;;19.53;;
25409;SDS011;13339;50.840;4.346;2024-01-11T05:35:51;44.33;;;18.37;;
25409;SDS011;13339;50.840;4.346;2024-01-11T05:38:18;50.40;;;19.30;;
25409;SDS011;13339;50.840;4.346;2024-01-11T05:40:44;47.23;;;19.67;;
25409;SDS011;13339;50.840;4.346;2024-01-11T05:43:10;42.10;;;18.60;;
25409;SDS011;13339;50.840;4.346;2024-01-11T05:45:35;41.03;;;18.43;;
25409;SDS011;13339;50.840;4.346;2024-01-11T05:48:01;41.77;;;18.43;;
25409;SDS011;13339;50.840;4.346;2024-01-11T05:50:27;48.13;;;20.47;;
25409;SDS011;13339;50.840;4.346;2024-01-11T05:52:53;54.10;;;23.57;;
25409;SDS011;13339;50.840;4.346;2024-01-11T05:55:19;44.23;;;20.27;;
25409;SDS011;13339;50.840;4.346;2024-01-11T05:57:45;46.87;;;20.73;;
25409;SDS011;13339;50.840;4.346;2024-01-11T06:00:11;42.83;;;19.53;;
25409;SDS011;13339;50.840;4.346;2024-01-11T06:02:37;51.40;;;20.03;;
25409;SDS011;13339;50.840;4.346;2024-01-11T06:05:03;42.40;;;20.30;;
25409;SDS011;13339;50.840;4.346;2024-01-11T06:07:29;48.37;;;20.00;;
25409;SDS011;13339;50.840;4.346;2024-01-11T06:09:54;54.23;;;21.90;;
25409;SDS011;13339;50.840;4.346;2024-01-11T06:12:20;43.87;;;20.20;;
25409;SDS011;13339;50.840;4.346;2024-01-11T06:14:45;44.73;;;18.27;;
25409;SDS011;13339;50.840;4.346;2024-01-11T06:17:11;46.67;;;19.10;;
25409;SDS011;13339;50.840;4.346;2024-01-11T06:19:37;44.63;;;19.40;;
25409;SDS011;13339;50.840;4.346;2024-01-11T06:22:03;47.07;;;19.93;;
25409;SDS011;13339;50.840;4.346;2024-01-11T06:24:30;47.50;;;18.90;;
25409;SDS011;13339;50.840;4.346;2024-01-11T06:26:56;48.43;;;20.50;;
25409;SDS011;13339;50.840;4.346;2024-01-11T06:29:22;40.93;;;19.20;;
25409;SDS011;13339;50.840;4.346;2024-01-11T06:31:47;43.50;;;19.13;;
25409;SDS011;13339;50.840;4.346;2024-01-11T06:34:13;42.67;;;19.43;;
25409;SDS011;13339;50.840;4.346;2024-01-11T06:36:38;40.13;;;19.77;;
25409;SDS011;13339;50.840;4.346;2024-01-11T06:39:04;44.00;;;19.27;;
25409;SDS011;13339;50.840;4.346;2024-01-11T06:41:30;45.53;;;19.60;;
25409;SDS011;13339;50.840;4.346;2024-01-11T06:43:56;45.83;;;20.10;;
25409;SDS011;13339;50.840;4.346;2024-01-11T06:46:23;41.87;;;20.40;;
25409;SDS011;13339;50.840;4.346;2024-01-11T06:48:48;40.50;;;18.73;;
25409;SDS011;13339;50.840;4.346;2024-01-11T06:51:23;43.77;;;19.20;;
25409;SDS011;13339;50.840;4.346;2024-01-11T06:53:49;45.13;;;20.27;;
25409;SDS011;13339;50.840;4.346;2024-01-11T06:58:41;43.90;;;19.73;;
25409;SDS011;13339;50.840;4.346;2024-01-11T07:01:08;43.77;;;19.77;;
25409;SDS011;13339;50.840;4.346;2024-01-11T07:03:33;47.17;;;20.57;;
25409;SDS011;13339;50.840;4.346;2024-01-11T07:05:59;45.47;;;20.10;;
25409;SDS011;13339;50.840;4.346;2024-01-11T07:08:25;44.33;;;19.53;;
25409;SDS011;13339;50.840;4.346;2024-01-11T07:10:50;48.13;;;21.40;;
25409;SDS011;13339;50.840;4.346;2024-01-11T07:13:16;49.43;;;19.97;;
25409;SDS011;13339;50.840;4.346;2024-01-11T07:15:42;48.20;;;21.00;;
25409;SDS011;13339;50.840;4.346;2024-01-11T07:18:08;47.70;;;21.67;;
25409;SDS011;13339;50.840;4.346;2024-01-11T07:20:34;46.90;;;20.87;;
25409;SDS011;13339;50.840;4.346;2024-01-11T07:23:00;50.27;;;21.57;;
25409;SDS011;13339;50.840;4.346;2024-01-11T07:25:25;46.67;;;19.90;;
25409;SDS011;13339;50.840;4.346;2024-01-11T07:27:51;52.13;;;21.67;;
25409;SDS011;13339;50.840;4.346;2024-01-11T07:30:17;43.13;;;20.93;;
25409;SDS011;13339;50.840;4.346;2024-01-11T07:32:45;49.90;;;20.03;;
25409;SDS011;13339;50.840;4.346;2024-01-11T07:35:11;45.50;;;21.60;;
25409;SDS011;13339;50.840;4.346;2024-01-11T07:37:38;49.37;;;20.93;;
25409;SDS011;13339;50.840;4.346;2024-01-11T07:40:04;48.57;;;21.77;;
25409;SDS011;13339;50.840;4.346;2024-01-11T07:42:35;50.63;;;21.87;;
25409;SDS011;13339;50.840;4.346;2024-01-11T07:45:02;43.73;;;20.57;;
25409;SDS011;13339;50.840;4.346;2024-01-11T07:47:27;46.37;;;20.80;;
25409;SDS011;13339;50.840;4.346;2024-01-11T07:49:53;48.33;;;21.80;;
25409;SDS011;13339;50.840;4.346;2024-01-11T07:52:19;48.53;;;22.00;;
25409;SDS011;13339;50.840;4.346;2024-01-11T07:54:46;48.50;;;21.93;;
25409;SDS011;13339;50.840;4.346;2024-01-11T07:57:11;55.43;;;23.03;;
25409;SDS011;13339;50.840;4.346;2024-01-11T07:59:37;49.27;;;21.87;;
25409;SDS011;13339;50.840;4.346;2024-01-11T08:02:03;53.43;;;23.33;;
25409;SDS011;13339;50.840;4.346;2024-01-11T08:04:29;53.50;;;21.63;;
25409;SDS011;13339;50.840;4.346;2024-01-11T08:06:54;48.37;;;21.03;;
25409;SDS011;13339;50.840;4.346;2024-01-11T08:09:20;52.30;;;22.47;;
25409;SDS011;13339;50.840;4.346;2024-01-11T08:11:47;52.03;;;22.20;;
25409;SDS011;13339;50.840;4.346;2024-01-11T08:14:12;47.83;;;21.47;;
25409;SDS011;13339;50.840;4.346;2024-01-11T08:16:39;48.63;;;21.63;;
25409;SDS011;13339;50.840;4.346;2024-01-11T08:19:04;48.47;;;21.57;;
25409;SDS011;13339;50.840;4.346;2024-01-11T08:21:30;48.00;;;21.53;;
25409;SDS011;13339;50.840;4.346;2024-01-11T08:23:56;46.87;;;21.30;;
25409;SDS011;13339;50.840;4.346;2024-01-11T08:26:22;55.80;;;22.60;;
25409;SDS011;13339;50.840;4.346;2024-01-11T08:28:47;49.03;;;20.30;;
25409;SDS011;13339;50.840;4.346;2024-01-11T08:31:13;54.07;;;21.33;;
25409;SDS011;13339;50.840;4.346;2024-01-11T08:33:39;53.43;;;22.70;;
25409;SDS011;13339;50.840;4.346;2024-01-11T08:36:05;49.30;;;21.03;;
25409;SDS011;13339;50.840;4.346;2024-01-11T08:38:31;49.10;;;21.47;;
25409;SDS011;13339;50.840;4.346;2024-01-11T08:40:57;55.17;;;23.17;;
25409;SDS011;13339;50.840;4.346;2024-01-11T08:43:26;46.23;;;22.13;;
25409;SDS011;13339;50.840;4.346;2024-01-11T08:45:52;47.00;;;21.93;;
25409;SDS011;13339;50.840;4.346;2024-01-11T08:48:19;45.90;;;22.23;;
25409;SDS011;13339;50.840;4.346;2024-01-11T08:50:44;46.17;;;21.47;;
25409;SDS011;13339;50.840;4.346;2024-01-11T08:53:10;57.63;;;22.13;;
25409;SDS011;13339;50.840;4.346;2024-01-11T08:55:36;50.60;;;21.40;;
25409;SDS011;13339;50.840;4.346;2024-01-11T08:58:01;53.37;;;20.40;;
25409;SDS011;13339;50.840;4.346;2024-01-11T09:00:27;45.17;;;21.60;;
25409;SDS011;13339;50.840;4.346;2024-01-11T09:02:53;48.70;;;22.50;;
25409;SDS011;13339;50.840;4.346;2024-01-11T09:05:18;50.07;;;22.83;;
25409;SDS011;13339;50.840;4.346;2024-01-11T09:07:44;50.50;;;22.47;;
25409;SDS011;13339;50.840;4.346;2024-01-11T09:10:10;47.93;;;22.33;;
25409;SDS011;13339;50.840;4.346;2024-01-11T09:12:38;46.90;;;22.47;;
25409;SDS011;13339;50.840;4.346;2024-01-11T09:15:04;54.10;;;24.83;;
25409;SDS011;13339;50.840;4.346;2024-01-11T09:17:30;51.20;;;22.60;;
25409;SDS011;13339;50.840;4.346;2024-01-11T09:19:56;47.33;;;21.93;;
25409;SDS011;13339;50.840;4.346;2024-01-11T09:22:21;49.83;;;22.23;;
25409;SDS011;13339;50.840;4.346;2024-01-11T09:24:47;51.23;;;23.47;;
25409;SDS011;13339;50.840;4.346;2024-01-11T09:27:13;54.70;;;22.27;;
25409;SDS011;13339;50.840;4.346;2024-01-11T09:29:42;48.90;;;23.10;;
25409;SDS011;13339;50.840;4.346;2024-01-11T09:32:11;48.77;;;22.77;;
25409;SDS011;13339;50.840;4.346;2024-01-11T09:34:37;50.83;;;25.27;;
25409;SDS011;13339;50.840;4.346;2024-01-11T09:37:03;60.77;;;23.70;;
25409;SDS011;13339;50.840;4.346;2024-01-11T09:39:29;56.33;;;23.57;;
25409;SDS011;13339;50.840;4.346;2024-01-11T09:41:58;53.00;;;22.87;;
25409;SDS011;13339;50.840;4.346;2024-01-11T09:44:30;57.83;;;23.47;;
25409;SDS011;13339;50.840;4.346;2024-01-11T09:46:57;56.53;;;24.60;;
25409;SDS011;13339;50.840;4.346;2024-01-11T09:49:25;52.00;;;23.97;;
25409;SDS011;13339;50.840;4.346;2024-01-11T09:51:51;62.40;;;24.97;;
25409;SDS011;13339;50.840;4.346;2024-01-11T09:54:18;55.97;;;24.70;;
25409;SDS011;13339;50.840;4.346;2024-01-11T09:56:46;50.27;;;23.43;;
25409;SDS011;13339;50.840;4.346;2024-01-11T09:59:14;55.87;;;24.20;;
25409;SDS011;13339;50.840;4.346;2024-01-11T10:01:42;54.63;;;24.53;;
25409;SDS011;13339;50.840;4.346;2024-01-11T10:04:08;50.20;;;23.07;;
25409;SDS011;13339;50.840;4.346;2024-01-11T10:06:34;55.93;;;23.87;;
25409;SDS011;13339;50.840;4.346;2024-01-11T10:09:03;53.10;;;23.70;;
25409;SDS011;13339;50.840;4.346;2024-01-11T10:11:29;48.67;;;23.63;;
25409;SDS011;13339;50.840;4.346;2024-01-11T10:13:58;52.37;;;24.23;;
25409;SDS011;13339;50.840;4.346;2024-01-11T10:16:25;49.43;;;23.73;;
25409;SDS011;13339;50.840;4.346;2024-01-11T10:18:55;56.20;;;25.50;;
25409;SDS011;13339;50.840;4.346;2024-01-11T10:21:21;56.63;;;24.80;;
25409;SDS011;13339;50.840;4.346;2024-01-11T10:23:47;52.77;;;22.07;;
25409;SDS011;13339;50.840;4.346;2024-01-11T10:26:17;56.00;;;24.30;;
25409;SDS011;13339;50.840;4.346;2024-01-11T10:28:46;53.33;;;23.57;;
25409;SDS011;13339;50.840;4.346;2024-01-11T10:31:12;80.23;;;24.20;;
25409;SDS011;13339;50.840;4.346;2024-01-11T10:33:41;54.10;;;24.20;;
25409;SDS011;13339;50.840;4.346;2024-01-11T10:36:07;56.40;;;28.08;;
25409;SDS011;13339;50.840;4.346;2024-01-11T10:38:35;52.60;;;23.87;;
25409;SDS011;13339;50.840;4.346;2024-01-11T10:41:07;51.97;;;23.37;;
25409;SDS011;13339;50.840;4.346;2024-01-11T10:43:37;49.40;;;24.10;;
25409;SDS011;13339;50.840;4.346;2024-01-11T10:46:04;55.50;;;23.77;;
25409;SDS011;13339;50.840;4.346;2024-01-11T10:48:31;53.33;;;23.47;;
25409;SDS011;13339;50.840;4.346;2024-01-11T10:51:02;53.00;;;23.47;;
25409;SDS011;13339;50.840;4.346;2024-01-11T10:53:42;56.30;;;24.57;;
25409;SDS011;13339;50.840;4.346;2024-01-11T10:56:10;55.47;;;22.43;;
25409;SDS011;13339;50.840;4.346;2024-01-11T10:58:39;48.17;;;23.17;;
25409;SDS011;13339;50.840;4.346;2024-01-11T11:01:06;53.20;;;24.00;;
25409;SDS011;13339;50.840;4.346;2024-01-11T11:03:37;52.57;;;23.40;;
25409;SDS011;13339;50.840;4.346;2024-01-11T11:06:03;54.00;;;23.87;;
25409;SDS011;13339;50.840;4.346;2024-01-11T11:08:31;47.93;;;24.10;;
25409;SDS011;13339;50.840;4.346;2024-01-11T11:11:00;54.30;;;23.70;;
25409;SDS011;13339;50.840;4.346;2024-01-11T11:13:31;48.13;;;23.97;;
25409;SDS011;13339;50.840;4.346;2024-01-11T11:15:57;53.33;;;24.47;;
25409;SDS011;13339;50.840;4.346;2024-01-11T11:18:24;53.00;;;23.63;;
25409;SDS011;13339;50.840;4.346;2024-01-11T11:20:51;51.67;;;24.53;;
25409;SDS011;13339;50.840;4.346;2024-01-11T11:23:17;57.47;;;25.37;;
25409;SDS011;13339;50.840;4.346;2024-01-11T11:25:47;50.03;;;23.50;;
25409;SDS011;13339;50.840;4.346;2024-01-11T11:28:15;59.60;;;25.00;;
25409;SDS011;13339;50.840;4.346;2024-01-11T11:30:42;49.83;;;22.57;;
25409;SDS011;13339;50.840;4.346;2024-01-11T11:35:35;52.57;;;23.40;;
25409;SDS011;13339;50.840;4.346;2024-01-11T11:38:02;48.73;;;22.43;;
25409;SDS011;13339;50.840;4.346;2024-01-11T11:40:37;51.10;;;22.07;;
25409;SDS011;13339;50.840;4.346;2024-01-11T11:43:05;50.63;;;22.10;;
25409;SDS011;13339;50.840;4.346;2024-01-11T11:45:31;45.77;;;21.97;;
25409;SDS011;13339;50.840;4.346;2024-01-11T11:47:57;56.70;;;22.87;;
25409;SDS011;13339;50.840;4.346;2024-01-11T11:50:23;48.57;;;22.97;;
25409;SDS011;13339;50.840;4.346;2024-01-11T11:52:56;48.60;;;22.47;;
25409;SDS011;13339;50.840;4.346;2024-01-11T11:55:23;52.90;;;22.43;;
25409;SDS011;13339;50.840;4.346;2024-01-11T11:57:50;53.03;;;20.93;;
25409;SDS011;13339;50.840;4.346;2024-01-11T12:00:17;42.80;;;21.60;;
25409;SDS011;13339;50.840;4.346;2024-01-11T12:02:44;44.20;;;21.03;;
25409;SDS011;13339;50.840;4.346;2024-01-11T12:05:11;48.03;;;22.33;;
25409;SDS011;13339;50.840;4.346;2024-01-11T12:07:36;48.13;;;22.20;;
25409;SDS011;13339;50.840;4.346;2024-01-11T12:10:02;47.77;;;22.27;;
25409;SDS011;13339;50.840;4.346;2024-01-11T12:12:29;41.17;;;20.10;;
25409;SDS011;13339;50.840;4.346;2024-01-11T12:14:54;48.20;;;21.07;;
25409;SDS011;13339;50.840;4.346;2024-01-11T12:17:20;44.37;;;21.10;;
25409;SDS011;13339;50.840;4.346;2024-01-11T12:19:46;41.50;;;21.00;;
25409;SDS011;13339;50.840;4.346;2024-01-11T12:22:12;47.00;;;21.90;;
25409;SDS011;13339;50.840;4.346;2024-01-11T12:24:37;45.77;;;20.57;;
25409;SDS011;13339;50.840;4.346;2024-01-11T12:27:03;49.23;;;20.30;;
25409;SDS011;13339;50.840;4.346;2024-01-11T12:29:29;46.90;;;20.17;;
25409;SDS011;13339;50.840;4.346;2024-01-11T12:31:56;44.03;;;19.47;;
25409;SDS011;13339;50.840;4.346;2024-01-11T12:34:23;40.17;;;20.17;;
25409;SDS011;13339;50.840;4.346;2024-01-11T12:36:50;42.73;;;17.83;;
25409;SDS011;13339;50.840;4.346;2024-01-11T12:39:18;42.57;;;19.73;;
25409;SDS011;13339;50.840;4.346;2024-01-11T12:41:47;43.30;;;19.53;;
25409;SDS011;13339;50.840;4.346;2024-01-11T12:44:19;41.00;;;19.60;;
25409;SDS011;13339;50.840;4.346;2024-01-11T12:46:47;41.10;;;19.47;;
25409;SDS011;13339;50.840;4.346;2024-01-11T12:49:14;38.00;;;18.80;;
25409;SDS011;13339;50.840;4.346;2024-01-11T12:51:40;43.23;;;19.10;;
25409;SDS011;13339;50.840;4.346;2024-01-11T12:54:15;41.37;;;19.50;;
25409;SDS011;13339;50.840;4.346;2024-01-11T12:56:44;39.07;;;19.13;;
25409;SDS011;13339;50.840;4.346;2024-01-11T12:59:10;41.07;;;19.40;;
25409;SDS011;13339;50.840;4.346;2024-01-11T13:01:37;39.30;;;19.50;;
25409;SDS011;13339;50.840;4.346;2024-01-11T13:04:03;41.50;;;18.87;;
25409;SDS011;13339;50.840;4.346;2024-01-11T13:06:32;41.30;;;17.63;;
25409;SDS011;13339;50.840;4.346;2024-01-11T13:08:59;41.23;;;16.87;;
25409;SDS011;13339;50.840;4.346;2024-01-11T13:11:26;35.10;;;17.57;;
25409;SDS011;13339;50.840;4.346;2024-01-11T13:13:52;55.23;;;19.33;;
25409;SDS011;13339;50.840;4.346;2024-01-11T13:16:18;43.50;;;17.77;;
25409;SDS011;13339;50.840;4.346;2024-01-11T13:18:44;34.53;;;16.40;;
25409;SDS011;13339;50.840;4.346;2024-01-11T13:21:10;32.97;;;16.03;;
25409;SDS011;13339;50.840;4.346;2024-01-11T13:23:37;43.37;;;17.27;;
25409;SDS011;13339;50.840;4.346;2024-01-11T13:26:03;32.67;;;15.80;;
25409;SDS011;13339;50.840;4.346;2024-01-11T13:28:29;32.97;;;16.60;;
25409;SDS011;13339;50.840;4.346;2024-01-11T13:30:55;39.73;;;17.00;;
25409;SDS011;13339;50.840;4.346;2024-01-11T13:33:22;36.50;;;16.93;;
25409;SDS011;13339;50.840;4.346;2024-01-11T13:35:49;32.63;;;15.77;;
25409;SDS011;13339;50.840;4.346;2024-01-11T13:38:15;30.70;;;16.03;;
25409;SDS011;13339;50.840;4.346;2024-01-11T13:40:41;35.60;;;16.23;;
25409;SDS011;13339;50.840;4.346;2024-01-11T13:43:08;30.60;;;15.47;;
25409;SDS011;13339;50.840;4.346;2024-01-11T13:45:34;35.83;;;15.73;;
25409;SDS011;13339;50.840;4.346;2024-01-11T13:48:04;29.27;;;15.83;;
25409;SDS011;13339;50.840;4.346;2024-01-11T13:50:30;30.20;;;15.03;;
25409;SDS011;13339;50.840;4.346;2024-01-11T13:52:57;30.17;;;14.77;;
25409;SDS011;13339;50.840;4.346;2024-01-11T13:55:23;30.47;;;16.47;;
25409;SDS011;13339;50.840;4.346;2024-01-11T13:57:51;27.10;;;14.77;;
25409;SDS011;13339;50.840;4.346;2024-01-11T14:00:18;32.57;;;15.77;;
25409;SDS011;13339;50.840;4.346;2024-01-11T14:02:44;28.30;;;15.00;;
25409;SDS011;13339;50.840;4.346;2024-01-11T14:05:11;32.93;;;15.93;;
25409;SDS011;13339;50.840;4.346;2024-01-11T14:07:39;33.13;;;15.90;;
25409;SDS011;13339;50.840;4.346;2024-01-11T14:10:06;32.60;;;15.10;;
25409;SDS011;13339;50.840;4.346;2024-01-11T14:12:36;30.10;;;15.60;;
25409;SDS011;13339;50.840;4.346;2024-01-11T14:15:02;30.33;;;15.23;;
25409;SDS011;13339;50.840;4.346;2024-01-11T14:17:29;28.63;;;15.43;;
25409;SDS011;13339;50.840;4.346;2024-01-11T14:19:55;29.30;;;15.10;;
25409;SDS011;13339;50.840;4.346;2024-01-11T14:22:20;35.00;;;15.17;;